Santa Elena, Texas
Current Conditions -  °F | °C
As of 11:55 AM on Friday 21 Nov 2014 (Local Time) from KEBG Reporting Station
Overcast Overcast  
Wind Chill: 75°   Ceiling: 1900
Heat Index: 75°   Visibility: 10mi
Dew Point: 70°   Wind: 12mph
Humidity: 82%   Direction: 140°SE
Pressure: 30.06"   Gusts: NA
Location:  26.76°N, 98.49°W
Report Text: KEBG 211755Z AUTO 14010KT 10SM SCT011 BKN019 OVC036 24/21 A3006 RMK AO2 P0001 60002 T02410209 10242 20210
Loading
Personal Weather Stations






























Interactive Weather Map New forecast layout! Learn more

10-Day Weather Forecast

Advertisements
Track Severe Weather on mobile